sensor_id;sensor_type;location;lat;lon;timestamp;temperature;humidity
28552;DHT22;15752;49.560;8.708;2022-07-06T00:02:09;22.00;63.10
28552;DHT22;15752;49.560;8.708;2022-07-06T00:04:38;22.00;63.40
28552;DHT22;15752;49.560;8.708;2022-07-06T00:07:07;21.90;63.30
28552;DHT22;15752;49.560;8.708;2022-07-06T00:09:35;21.90;63.30
28552;DHT22;15752;49.560;8.708;2022-07-06T00:12:04;21.90;63.80
28552;DHT22;15752;49.560;8.708;2022-07-06T00:14:33;21.80;63.80
28552;DHT22;15752;49.560;8.708;2022-07-06T00:17:03;21.80;64.00
28552;DHT22;15752;49.560;8.708;2022-07-06T00:19:33;21.70;64.20
28552;DHT22;15752;49.560;8.708;2022-07-06T00:22:02;21.70;64.40
28552;DHT22;15752;49.560;8.708;2022-07-06T00:24:31;21.70;64.60
28552;DHT22;15752;49.560;8.708;2022-07-06T00:27:00;21.60;64.30
28552;DHT22;15752;49.560;8.708;2022-07-06T00:29:29;21.60;64.70
28552;DHT22;15752;49.560;8.708;2022-07-06T00:31:58;21.60;64.80
28552;DHT22;15752;49.560;8.708;2022-07-06T00:34:26;21.50;64.90
28552;DHT22;15752;49.560;8.708;2022-07-06T00:36:57;21.50;65.60
28552;DHT22;15752;49.560;8.708;2022-07-06T00:39:25;21.50;65.70
28552;DHT22;15752;49.560;8.708;2022-07-06T00:41:56;21.40;65.40
28552;DHT22;15752;49.560;8.708;2022-07-06T00:44:25;21.40;65.80
28552;DHT22;15752;49.560;8.708;2022-07-06T00:46:54;21.40;65.70
28552;DHT22;15752;49.560;8.708;2022-07-06T00:49:23;21.30;65.90
28552;DHT22;15752;49.560;8.708;2022-07-06T00:52:12;21.30;66.20
28552;DHT22;15752;49.560;8.708;2022-07-06T00:54:41;21.20;66.70
28552;DHT22;15752;49.560;8.708;2022-07-06T00:57:11;21.20;66.70
28552;DHT22;15752;49.560;8.708;2022-07-06T00:59:40;21.20;66.70
28552;DHT22;15752;49.560;8.708;2022-07-06T01:02:09;21.10;66.50
28552;DHT22;15752;49.560;8.708;2022-07-06T01:04:38;21.10;66.50
28552;DHT22;15752;49.560;8.708;2022-07-06T01:07:07;21.10;66.70
28552;DHT22;15752;49.560;8.708;2022-07-06T01:09:37;21.00;66.80
28552;DHT22;15752;49.560;8.708;2022-07-06T01:12:06;21.00;67.20
28552;DHT22;15752;49.560;8.708;2022-07-06T01:14:36;21.00;67.30
28552;DHT22;15752;49.560;8.708;2022-07-06T01:17:07;20.90;67.30
28552;DHT22;15752;49.560;8.708;2022-07-06T01:19:36;20.90;67.60
28552;DHT22;15752;49.560;8.708;2022-07-06T01:22:07;20.90;67.50
28552;DHT22;15752;49.560;8.708;2022-07-06T01:24:38;20.80;67.90
28552;DHT22;15752;49.560;8.708;2022-07-06T01:27:07;20.80;67.70
28552;DHT22;15752;49.560;8.708;2022-07-06T01:29:36;20.70;67.80
28552;DHT22;15752;49.560;8.708;2022-07-06T01:32:06;20.70;67.80
28552;DHT22;15752;49.560;8.708;2022-07-06T01:34:35;20.70;68.30
28552;DHT22;15752;49.560;8.708;2022-07-06T01:37:03;20.70;68.30
28552;DHT22;15752;49.560;8.708;2022-07-06T01:39:34;20.60;69.00
28552;DHT22;15752;49.560;8.708;2022-07-06T01:42:05;20.60;69.60
28552;DHT22;15752;49.560;8.708;2022-07-06T01:44:34;20.60;69.70
28552;DHT22;15752;49.560;8.708;2022-07-06T01:47:03;20.50;69.90
28552;DHT22;15752;49.560;8.708;2022-07-06T01:49:32;20.50;70.00
28552;DHT22;15752;49.560;8.708;2022-07-06T01:52:01;20.50;70.00
28552;DHT22;15752;49.560;8.708;2022-07-06T01:54:30;20.40;70.20
28552;DHT22;15752;49.560;8.708;2022-07-06T01:57:00;20.40;70.20
28552;DHT22;15752;49.560;8.708;2022-07-06T01:59:28;20.40;70.60
28552;DHT22;15752;49.560;8.708;2022-07-06T02:01:57;20.30;70.40
28552;DHT22;15752;49.560;8.708;2022-07-06T02:04:26;20.30;70.80
28552;DHT22;15752;49.560;8.708;2022-07-06T02:06:56;20.30;71.10
28552;DHT22;15752;49.560;8.708;2022-07-06T02:09:25;20.30;71.30
28552;DHT22;15752;49.560;8.708;2022-07-06T02:11:54;20.30;71.70
28552;DHT22;15752;49.560;8.708;2022-07-06T02:14:24;20.20;71.60
28552;DHT22;15752;49.560;8.708;2022-07-06T02:16:53;20.20;72.10
28552;DHT22;15752;49.560;8.708;2022-07-06T02:19:22;20.20;72.20
28552;DHT22;15752;49.560;8.708;2022-07-06T02:21:51;20.20;72.40
28552;DHT22;15752;49.560;8.708;2022-07-06T02:24:19;20.10;72.10
28552;DHT22;15752;49.560;8.708;2022-07-06T02:26:49;20.10;72.10
28552;DHT22;15752;49.560;8.708;2022-07-06T02:29:18;20.10;72.40
28552;DHT22;15752;49.560;8.708;2022-07-06T02:31:48;20.10;72.40
28552;DHT22;15752;49.560;8.708;2022-07-06T02:34:17;20.00;73.00
28552;DHT22;15752;49.560;8.708;2022-07-06T02:36:46;20.00;72.90
28552;DHT22;15752;49.560;8.708;2022-07-06T02:39:16;20.00;72.90
28552;DHT22;15752;49.560;8.708;2022-07-06T02:41:46;20.00;73.40
28552;DHT22;15752;49.560;8.708;2022-07-06T02:44:15;19.90;73.50
28552;DHT22;15752;49.560;8.708;2022-07-06T02:46:43;19.90;74.10
28552;DHT22;15752;49.560;8.708;2022-07-06T02:49:14;19.90;74.40
28552;DHT22;15752;49.560;8.708;2022-07-06T02:51:43;19.90;74.90
28552;DHT22;15752;49.560;8.708;2022-07-06T02:54:12;19.80;75.00
28552;DHT22;15752;49.560;8.708;2022-07-06T02:56:41;19.80;75.40
28552;DHT22;15752;49.560;8.708;2022-07-06T02:59:09;19.80;75.60
28552;DHT22;15752;49.560;8.708;2022-07-06T03:01:42;19.80;75.80
28552;DHT22;15752;49.560;8.708;2022-07-06T03:04:11;19.70;76.00
28552;DHT22;15752;49.560;8.708;2022-07-06T03:06:42;19.70;75.90
28552;DHT22;15752;49.560;8.708;2022-07-06T03:09:11;19.70;76.80
28552;DHT22;15752;49.560;8.708;2022-07-06T03:11:40;19.70;76.80
28552;DHT22;15752;49.560;8.708;2022-07-06T03:14:10;19.70;77.00
28552;DHT22;15752;49.560;8.708;2022-07-06T03:16:42;19.60;77.30
28552;DHT22;15752;49.560;8.708;2022-07-06T03:19:18;19.60;77.40
28552;DHT22;15752;49.560;8.708;2022-07-06T03:21:49;19.60;77.90
28552;DHT22;15752;49.560;8.708;2022-07-06T03:24:18;19.50;78.60
28552;DHT22;15752;49.560;8.708;2022-07-06T03:26:47;19.60;78.40
28552;DHT22;15752;49.560;8.708;2022-07-06T03:29:15;19.50;78.50
28552;DHT22;15752;49.560;8.708;2022-07-06T03:31:44;19.50;79.10
28552;DHT22;15752;49.560;8.708;2022-07-06T03:34:13;19.50;79.20
28552;DHT22;15752;49.560;8.708;2022-07-06T03:36:42;19.40;79.30
28552;DHT22;15752;49.560;8.708;2022-07-06T03:39:13;19.40;79.50
28552;DHT22;15752;49.560;8.708;2022-07-06T03:41:42;19.40;80.00
28552;DHT22;15752;49.560;8.708;2022-07-06T03:44:11;19.40;79.90
28552;DHT22;15752;49.560;8.708;2022-07-06T03:46:40;19.30;80.30
28552;DHT22;15752;49.560;8.708;2022-07-06T03:49:11;19.30;80.50
28552;DHT22;15752;49.560;8.708;2022-07-06T03:51:40;19.30;81.00
28552;DHT22;15752;49.560;8.708;2022-07-06T03:54:09;19.30;81.20
28552;DHT22;15752;49.560;8.708;2022-07-06T03:56:40;19.30;81.60
28552;DHT22;15752;49.560;8.708;2022-07-06T03:59:13;19.30;81.90
28552;DHT22;15752;49.560;8.708;2022-07-06T04:01:42;19.30;81.80
28552;DHT22;15752;49.560;8.708;2022-07-06T04:04:14;19.20;82.30
28552;DHT22;15752;49.560;8.708;2022-07-06T04:06:45;19.20;82.30
28552;DHT22;15752;49.560;8.708;2022-07-06T04:09:15;19.20;83.00
28552;DHT22;15752;49.560;8.708;2022-07-06T04:11:46;19.20;82.60
28552;DHT22;15752;49.560;8.708;2022-07-06T04:14:15;19.20;83.00
28552;DHT22;15752;49.560;8.708;2022-07-06T04:16:44;19.20;82.90
28552;DHT22;15752;49.560;8.708;2022-07-06T04:19:14;19.10;82.80
28552;DHT22;15752;49.560;8.708;2022-07-06T04:21:43;19.10;83.40
28552;DHT22;15752;49.560;8.708;2022-07-06T04:24:12;19.10;83.60
28552;DHT22;15752;49.560;8.708;2022-07-06T04:26:42;19.10;83.90
28552;DHT22;15752;49.560;8.708;2022-07-06T04:29:12;19.10;84.30
28552;DHT22;15752;49.560;8.708;2022-07-06T04:31:41;19.10;84.90
28552;DHT22;15752;49.560;8.708;2022-07-06T04:34:10;19.10;84.90
28552;DHT22;15752;49.560;8.708;2022-07-06T04:36:39;19.10;85.10
28552;DHT22;15752;49.560;8.708;2022-07-06T04:39:08;19.10;85.10
28552;DHT22;15752;49.560;8.708;2022-07-06T04:41:37;19.10;85.50
28552;DHT22;15752;49.560;8.708;2022-07-06T04:44:06;19.10;85.80
28552;DHT22;15752;49.560;8.708;2022-07-06T04:46:36;19.10;85.90
28552;DHT22;15752;49.560;8.708;2022-07-06T04:49:05;19.10;86.10
28552;DHT22;15752;49.560;8.708;2022-07-06T04:51:34;19.10;86.10
28552;DHT22;15752;49.560;8.708;2022-07-06T04:54:04;19.10;86.20
28552;DHT22;15752;49.560;8.708;2022-07-06T04:56:34;19.10;86.50
28552;DHT22;15752;49.560;8.708;2022-07-06T04:59:03;19.10;86.60
28552;DHT22;15752;49.560;8.708;2022-07-06T05:01:32;19.20;86.80
28552;DHT22;15752;49.560;8.708;2022-07-06T05:04:03;19.20;86.50
28552;DHT22;15752;49.560;8.708;2022-07-06T05:06:32;19.20;86.90
28552;DHT22;15752;49.560;8.708;2022-07-06T05:09:01;19.20;86.70
28552;DHT22;15752;49.560;8.708;2022-07-06T05:11:31;19.20;86.90
28552;DHT22;15752;49.560;8.708;2022-07-06T05:14:01;19.20;86.60
28552;DHT22;15752;49.560;8.708;2022-07-06T05:16:30;19.20;86.00
28552;DHT22;15752;49.560;8.708;2022-07-06T05:18:59;19.30;86.20
28552;DHT22;15752;49.560;8.708;2022-07-06T05:21:29;19.30;86.40
28552;DHT22;15752;49.560;8.708;2022-07-06T05:23:58;19.40;86.00
28552;DHT22;15752;49.560;8.708;2022-07-06T05:26:27;19.30;86.00
28552;DHT22;15752;49.560;8.708;2022-07-06T05:28:56;19.40;86.10
28552;DHT22;15752;49.560;8.708;2022-07-06T05:31:25;19.40;86.50
28552;DHT22;15752;49.560;8.708;2022-07-06T05:33:56;19.50;86.40
28552;DHT22;15752;49.560;8.708;2022-07-06T05:36:26;19.50;86.20
28552;DHT22;15752;49.560;8.708;2022-07-06T05:38:56;19.50;86.00
28552;DHT22;15752;49.560;8.708;2022-07-06T05:41:25;19.50;86.10
28552;DHT22;15752;49.560;8.708;2022-07-06T05:43:59;19.60;86.00
28552;DHT22;15752;49.560;8.708;2022-07-06T05:46:28;19.60;85.90
28552;DHT22;15752;49.560;8.708;2022-07-06T05:48:57;19.60;86.00
28552;DHT22;15752;49.560;8.708;2022-07-06T05:51:43;19.60;85.90
28552;DHT22;15752;49.560;8.708;2022-07-06T05:54:13;19.70;85.70
28552;DHT22;15752;49.560;8.708;2022-07-06T05:56:42;19.70;85.70
28552;DHT22;15752;49.560;8.708;2022-07-06T05:59:12;19.70;85.20
28552;DHT22;15752;49.560;8.708;2022-07-06T06:01:41;19.70;85.10
28552;DHT22;15752;49.560;8.708;2022-07-06T06:04:15;19.70;85.30
28552;DHT22;15752;49.560;8.708;2022-07-06T06:06:44;19.70;85.30
28552;DHT22;15752;49.560;8.708;2022-07-06T06:09:14;19.70;86.20
28552;DHT22;15752;49.560;8.708;2022-07-06T06:11:43;19.80;85.60
28552;DHT22;15752;49.560;8.708;2022-07-06T06:14:12;19.80;85.20
28552;DHT22;15752;49.560;8.708;2022-07-06T06:16:41;19.80;85.30
28552;DHT22;15752;49.560;8.708;2022-07-06T06:19:10;19.80;85.20
28552;DHT22;15752;49.560;8.708;2022-07-06T06:21:39;19.90;85.30
28552;DHT22;15752;49.560;8.708;2022-07-06T06:24:08;19.90;85.40
28552;DHT22;15752;49.560;8.708;2022-07-06T06:26:38;19.90;85.20
28552;DHT22;15752;49.560;8.708;2022-07-06T06:29:06;19.90;85.20
28552;DHT22;15752;49.560;8.708;2022-07-06T06:31:35;20.00;85.40
28552;DHT22;15752;49.560;8.708;2022-07-06T06:34:08;20.00;85.30
28552;DHT22;15752;49.560;8.708;2022-07-06T06:36:36;20.00;85.50
28552;DHT22;15752;49.560;8.708;2022-07-06T06:39:05;20.00;85.60
28552;DHT22;15752;49.560;8.708;2022-07-06T06:41:34;20.10;85.60
28552;DHT22;15752;49.560;8.708;2022-07-06T06:44:04;20.10;85.40
28552;DHT22;15752;49.560;8.708;2022-07-06T06:46:38;20.10;85.40
28552;DHT22;15752;49.560;8.708;2022-07-06T06:49:07;20.20;85.30
28552;DHT22;15752;49.560;8.708;2022-07-06T06:51:36;20.20;85.10
28552;DHT22;15752;49.560;8.708;2022-07-06T06:54:06;20.20;85.10
28552;DHT22;15752;49.560;8.708;2022-07-06T06:56:35;20.20;85.20
28552;DHT22;15752;49.560;8.708;2022-07-06T06:59:05;20.20;85.20
28552;DHT22;15752;49.560;8.708;2022-07-06T07:01:44;20.30;85.30
28552;DHT22;15752;49.560;8.708;2022-07-06T07:04:21;20.30;85.00
28552;DHT22;15752;49.560;8.708;2022-07-06T07:06:50;20.30;84.90
28552;DHT22;15752;49.560;8.708;2022-07-06T07:09:19;20.40;85.00
28552;DHT22;15752;49.560;8.708;2022-07-06T07:11:48;20.40;84.90
28552;DHT22;15752;49.560;8.708;2022-07-06T07:14:18;20.40;84.90
28552;DHT22;15752;49.560;8.708;2022-07-06T07:16:47;20.50;85.10
28552;DHT22;15752;49.560;8.708;2022-07-06T07:19:15;20.50;85.00
28552;DHT22;15752;49.560;8.708;2022-07-06T07:21:44;20.50;84.90
28552;DHT22;15752;49.560;8.708;2022-07-06T07:24:13;20.50;84.60
28552;DHT22;15752;49.560;8.708;2022-07-06T07:26:42;20.50;84.60
28552;DHT22;15752;49.560;8.708;2022-07-06T07:29:11;20.50;84.60
28552;DHT22;15752;49.560;8.708;2022-07-06T07:31:41;20.50;84.60
28552;DHT22;15752;49.560;8.708;2022-07-06T07:34:10;20.60;84.70
28552;DHT22;15752;49.560;8.708;2022-07-06T07:36:39;20.60;84.70
28552;DHT22;15752;49.560;8.708;2022-07-06T07:39:07;20.60;84.80
28552;DHT22;15752;49.560;8.708;2022-07-06T07:41:36;20.70;84.70
28552;DHT22;15752;49.560;8.708;2022-07-06T07:44:05;20.70;84.70
28552;DHT22;15752;49.560;8.708;2022-07-06T07:46:34;20.70;84.90
28552;DHT22;15752;49.560;8.708;2022-07-06T07:49:04;20.80;84.90
28552;DHT22;15752;49.560;8.708;2022-07-06T07:51:34;20.80;85.20
28552;DHT22;15752;49.560;8.708;2022-07-06T07:54:03;20.90;85.10
28552;DHT22;15752;49.560;8.708;2022-07-06T07:56:33;20.90;85.20
28552;DHT22;15752;49.560;8.708;2022-07-06T07:59:02;20.90;84.90
28552;DHT22;15752;49.560;8.708;2022-07-06T08:01:33;21.00;84.70
28552;DHT22;15752;49.560;8.708;2022-07-06T08:04:03;21.00;84.80
28552;DHT22;15752;49.560;8.708;2022-07-06T08:06:32;21.00;84.60
28552;DHT22;15752;49.560;8.708;2022-07-06T08:09:01;21.00;84.30
28552;DHT22;15752;49.560;8.708;2022-07-06T08:11:32;21.10;84.30
28552;DHT22;15752;49.560;8.708;2022-07-06T08:14:00;21.10;84.40
28552;DHT22;15752;49.560;8.708;2022-07-06T08:16:29;21.10;84.70
28552;DHT22;15752;49.560;8.708;2022-07-06T08:18:59;21.10;84.60
28552;DHT22;15752;49.560;8.708;2022-07-06T08:21:37;21.20;84.40
28552;DHT22;15752;49.560;8.708;2022-07-06T08:24:07;21.20;84.40
28552;DHT22;15752;49.560;8.708;2022-07-06T08:26:35;21.30;84.40
28552;DHT22;15752;49.560;8.708;2022-07-06T08:29:05;21.30;84.40
28552;DHT22;15752;49.560;8.708;2022-07-06T08:31:33;21.30;84.40
28552;DHT22;15752;49.560;8.708;2022-07-06T08:34:22;21.40;84.10
28552;DHT22;15752;49.560;8.708;2022-07-06T08:37:01;21.40;83.90
28552;DHT22;15752;49.560;8.708;2022-07-06T08:39:30;21.40;83.90
28552;DHT22;15752;49.560;8.708;2022-07-06T08:41:59;21.40;83.60
28552;DHT22;15752;49.560;8.708;2022-07-06T08:44:29;21.50;84.10
28552;DHT22;15752;49.560;8.708;2022-07-06T08:47:00;21.50;84.10
28552;DHT22;15752;49.560;8.708;2022-07-06T08:49:34;21.50;83.50
28552;DHT22;15752;49.560;8.708;2022-07-06T08:52:07;21.60;83.60
28552;DHT22;15752;49.560;8.708;2022-07-06T08:54:37;21.60;83.40
28552;DHT22;15752;49.560;8.708;2022-07-06T08:57:07;21.60;83.60
28552;DHT22;15752;49.560;8.708;2022-07-06T08:59:36;21.60;83.30
28552;DHT22;15752;49.560;8.708;2022-07-06T09:02:05;21.70;83.30
28552;DHT22;15752;49.560;8.708;2022-07-06T09:04:36;21.70;82.90
28552;DHT22;15752;49.560;8.708;2022-07-06T09:07:06;21.70;83.00
28552;DHT22;15752;49.560;8.708;2022-07-06T09:09:37;21.70;83.00
28552;DHT22;15752;49.560;8.708;2022-07-06T09:12:10;21.70;82.50
28552;DHT22;15752;49.560;8.708;2022-07-06T09:14:40;21.70;82.60
28552;DHT22;15752;49.560;8.708;2022-07-06T09:17:08;21.70;82.60
28552;DHT22;15752;49.560;8.708;2022-07-06T09:19:45;21.80;82.70
28552;DHT22;15752;49.560;8.708;2022-07-06T09:22:27;21.80;82.70
28552;DHT22;15752;49.560;8.708;2022-07-06T09:25:03;21.80;82.80
28552;DHT22;15752;49.560;8.708;2022-07-06T09:27:37;21.90;82.40
28552;DHT22;15752;49.560;8.708;2022-07-06T09:30:09;21.90;82.50
28552;DHT22;15752;49.560;8.708;2022-07-06T09:32:40;22.00;82.40
28552;DHT22;15752;49.560;8.708;2022-07-06T09:35:19;22.00;82.10
28552;DHT22;15752;49.560;8.708;2022-07-06T09:38:02;22.10;82.80
28552;DHT22;15752;49.560;8.708;2022-07-06T09:40:34;22.10;82.00
28552;DHT22;15752;49.560;8.708;2022-07-06T09:43:12;22.20;82.40
28552;DHT22;15752;49.560;8.708;2022-07-06T09:45:44;22.20;82.30
28552;DHT22;15752;49.560;8.708;2022-07-06T09:48:14;22.30;81.60
28552;DHT22;15752;49.560;8.708;2022-07-06T09:50:49;22.40;81.20
28552;DHT22;15752;49.560;8.708;2022-07-06T09:53:22;22.40;81.30
28552;DHT22;15752;49.560;8.708;2022-07-06T09:55:53;22.40;81.00
28552;DHT22;15752;49.560;8.708;2022-07-06T09:58:23;22.40;80.30
28552;DHT22;15752;49.560;8.708;2022-07-06T10:01:12;22.50;80.00
28552;DHT22;15752;49.560;8.708;2022-07-06T10:03:41;22.50;79.90
28552;DHT22;15752;49.560;8.708;2022-07-06T10:06:10;22.50;80.00
28552;DHT22;15752;49.560;8.708;2022-07-06T10:08:42;22.50;79.70
28552;DHT22;15752;49.560;8.708;2022-07-06T10:11:11;22.50;79.30
28552;DHT22;15752;49.560;8.708;2022-07-06T10:13:42;22.50;79.30
28552;DHT22;15752;49.560;8.708;2022-07-06T10:16:13;22.50;79.50
28552;DHT22;15752;49.560;8.708;2022-07-06T10:18:43;22.60;79.10
28552;DHT22;15752;49.560;8.708;2022-07-06T10:21:12;22.60;78.40
28552;DHT22;15752;49.560;8.708;2022-07-06T10:23:43;22.70;78.40
28552;DHT22;15752;49.560;8.708;2022-07-06T10:26:12;22.70;77.90
28552;DHT22;15752;49.560;8.708;2022-07-06T10:28:42;22.70;78.40
28552;DHT22;15752;49.560;8.708;2022-07-06T10:31:12;22.70;78.60
28552;DHT22;15752;49.560;8.708;2022-07-06T10:33:42;22.70;78.30
28552;DHT22;15752;49.560;8.708;2022-07-06T10:36:12;22.70;77.90
28552;DHT22;15752;49.560;8.708;2022-07-06T10:38:48;22.70;77.90
28552;DHT22;15752;49.560;8.708;2022-07-06T10:41:18;22.80;76.80
28552;DHT22;15752;49.560;8.708;2022-07-06T10:43:58;22.80;77.60
28552;DHT22;15752;49.560;8.708;2022-07-06T10:46:50;22.80;77.40
28552;DHT22;15752;49.560;8.708;2022-07-06T10:49:22;22.80;76.90
28552;DHT22;15752;49.560;8.708;2022-07-06T10:52:11;22.80;76.60
28552;DHT22;15752;49.560;8.708;2022-07-06T10:54:43;22.80;75.50
28552;DHT22;15752;49.560;8.708;2022-07-06T10:57:13;22.80;75.60
28552;DHT22;15752;49.560;8.708;2022-07-06T11:00:00;22.90;75.70
28552;DHT22;15752;49.560;8.708;2022-07-06T11:02:38;22.90;76.10
28552;DHT22;15752;49.560;8.708;2022-07-06T11:05:10;22.90;75.80
28552;DHT22;15752;49.560;8.708;2022-07-06T11:07:49;22.90;75.30
28552;DHT22;15752;49.560;8.708;2022-07-06T11:10:22;22.90;75.90
28552;DHT22;15752;49.560;8.708;2022-07-06T11:12:58;23.00;75.50
28552;DHT22;15752;49.560;8.708;2022-07-06T11:15:46;23.00;75.10
28552;DHT22;15752;49.560;8.708;2022-07-06T11:18:19;23.10;75.50
28552;DHT22;15752;49.560;8.708;2022-07-06T11:23:49;23.10;74.00
28552;DHT22;15752;49.560;8.708;2022-07-06T11:26:21;23.10;72.90
28552;DHT22;15752;49.560;8.708;2022-07-06T11:28:52;23.20;73.30
28552;DHT22;15752;49.560;8.708;2022-07-06T11:31:21;23.20;74.30
28552;DHT22;15752;49.560;8.708;2022-07-06T11:33:51;23.30;73.90
28552;DHT22;15752;49.560;8.708;2022-07-06T11:36:21;23.30;73.10
28552;DHT22;15752;49.560;8.708;2022-07-06T11:38:50;23.40;71.60
28552;DHT22;15752;49.560;8.708;2022-07-06T11:41:21;23.40;73.40
28552;DHT22;15752;49.560;8.708;2022-07-06T11:43:49;23.50;70.80
28552;DHT22;15752;49.560;8.708;2022-07-06T11:46:23;23.50;71.10
28552;DHT22;15752;49.560;8.708;2022-07-06T11:48:55;23.60;69.30
28552;DHT22;15752;49.560;8.708;2022-07-06T11:51:26;23.60;69.40
28552;DHT22;15752;49.560;8.708;2022-07-06T11:53:57;23.70;68.30
28552;DHT22;15752;49.560;8.708;2022-07-06T11:56:29;23.80;67.60
28552;DHT22;15752;49.560;8.708;2022-07-06T11:58:59;23.80;67.50
28552;DHT22;15752;49.560;8.708;2022-07-06T12:01:29;23.80;67.10
28552;DHT22;15752;49.560;8.708;2022-07-06T12:03:59;23.90;67.30
28552;DHT22;15752;49.560;8.708;2022-07-06T12:06:31;23.90;65.20
28552;DHT22;15752;49.560;8.708;2022-07-06T12:09:03;23.90;64.30
28552;DHT22;15752;49.560;8.708;2022-07-06T12:11:36;23.90;63.40
28552;DHT22;15752;49.560;8.708;2022-07-06T12:14:13;23.90;61.60
28552;DHT22;15752;49.560;8.708;2022-07-06T12:16:44;23.90;62.00
28552;DHT22;15752;49.560;8.708;2022-07-06T12:19:14;23.90;61.00
28552;DHT22;15752;49.560;8.708;2022-07-06T12:21:46;23.90;61.00
28552;DHT22;15752;49.560;8.708;2022-07-06T12:24:20;24.00;61.20
28552;DHT22;15752;49.560;8.708;2022-07-06T12:26:53;23.70;61.10
28552;DHT22;15752;49.560;8.708;2022-07-06T12:29:23;24.00;61.20
28552;DHT22;15752;49.560;8.708;2022-07-06T12:31:53;24.00;62.30
28552;DHT22;15752;49.560;8.708;2022-07-06T12:34:23;24.00;62.10
28552;DHT22;15752;49.560;8.708;2022-07-06T12:36:54;24.10;61.50
28552;DHT22;15752;49.560;8.708;2022-07-06T12:39:41;24.20;61.70
28552;DHT22;15752;49.560;8.708;2022-07-06T12:42:13;24.20;62.10
28552;DHT22;15752;49.560;8.708;2022-07-06T12:44:47;24.30;61.50
28552;DHT22;15752;49.560;8.708;2022-07-06T12:47:18;24.40;61.30
28552;DHT22;15752;49.560;8.708;2022-07-06T12:50:03;24.50;60.00
28552;DHT22;15752;49.560;8.708;2022-07-06T12:52:33;24.60;60.50
28552;DHT22;15752;49.560;8.708;2022-07-06T12:55:03;24.70;61.00
28552;DHT22;15752;49.560;8.708;2022-07-06T12:57:45;24.80;61.20
28552;DHT22;15752;49.560;8.708;2022-07-06T13:00:15;24.90;59.90
28552;DHT22;15752;49.560;8.708;2022-07-06T13:02:45;25.00;59.90
28552;DHT22;15752;49.560;8.708;2022-07-06T13:05:35;25.00;59.80
28552;DHT22;15752;49.560;8.708;2022-07-06T13:08:06;25.10;59.10
28552;DHT22;15752;49.560;8.708;2022-07-06T13:10:36;25.20;58.90
28552;DHT22;15752;49.560;8.708;2022-07-06T13:13:09;25.20;58.60
28552;DHT22;15752;49.560;8.708;2022-07-06T13:15:41;25.20;57.80
28552;DHT22;15752;49.560;8.708;2022-07-06T13:18:11;25.30;57.70
28552;DHT22;15752;49.560;8.708;2022-07-06T13:20:40;25.30;58.10
28552;DHT22;15752;49.560;8.708;2022-07-06T13:23:10;25.30;57.30
28552;DHT22;15752;49.560;8.708;2022-07-06T13:25:39;25.40;57.70
28552;DHT22;15752;49.560;8.708;2022-07-06T13:28:09;25.40;57.70
28552;DHT22;15752;49.560;8.708;2022-07-06T13:30:38;25.40;56.80
28552;DHT22;15752;49.560;8.708;2022-07-06T13:33:06;25.50;56.50
28552;DHT22;15752;49.560;8.708;2022-07-06T13:35:35;25.50;56.90
28552;DHT22;15752;49.560;8.708;2022-07-06T13:38:04;25.60;56.80
28552;DHT22;15752;49.560;8.708;2022-07-06T13:40:40;25.60;56.60
28552;DHT22;15752;49.560;8.708;2022-07-06T13:43:11;25.60;56.60
28552;DHT22;15752;49.560;8.708;2022-07-06T13:45:39;25.70;56.00
28552;DHT22;15752;49.560;8.708;2022-07-06T13:48:08;25.70;56.20
28552;DHT22;15752;49.560;8.708;2022-07-06T13:50:37;25.70;55.80
28552;DHT22;15752;49.560;8.708;2022-07-06T13:53:06;25.80;55.50
28552;DHT22;15752;49.560;8.708;2022-07-06T13:55:35;26.00;55.40
28552;DHT22;15752;49.560;8.708;2022-07-06T13:58:04;25.90;55.40
28552;DHT22;15752;49.560;8.708;2022-07-06T14:00:35;25.90;55.40
28552;DHT22;15752;49.560;8.708;2022-07-06T14:03:05;25.90;54.50
28552;DHT22;15752;49.560;8.708;2022-07-06T14:05:34;25.90;55.10
28552;DHT22;15752;49.560;8.708;2022-07-06T14:08:03;25.90;54.90
28552;DHT22;15752;49.560;8.708;2022-07-06T14:10:32;25.90;55.20
28552;DHT22;15752;49.560;8.708;2022-07-06T14:13:01;25.90;54.70
28552;DHT22;15752;49.560;8.708;2022-07-06T14:15:30;26.00;55.40
28552;DHT22;15752;49.560;8.708;2022-07-06T14:18:00;25.90;55.00
28552;DHT22;15752;49.560;8.708;2022-07-06T14:20:29;25.90;53.90
28552;DHT22;15752;49.560;8.708;2022-07-06T14:22:58;25.90;54.30
28552;DHT22;15752;49.560;8.708;2022-07-06T14:25:27;25.90;53.90
28552;DHT22;15752;49.560;8.708;2022-07-06T14:27:56;25.90;53.40
28552;DHT22;15752;49.560;8.708;2022-07-06T14:30:25;25.90;53.80
28552;DHT22;15752;49.560;8.708;2022-07-06T14:32:54;25.90;53.90
28552;DHT22;15752;49.560;8.708;2022-07-06T14:35:25;26.00;53.90
28552;DHT22;15752;49.560;8.708;2022-07-06T14:37:54;26.00;53.60
28552;DHT22;15752;49.560;8.708;2022-07-06T14:40:22;26.00;53.80
28552;DHT22;15752;49.560;8.708;2022-07-06T14:42:51;26.10;53.40
28552;DHT22;15752;49.560;8.708;2022-07-06T14:45:20;26.10;52.90
28552;DHT22;15752;49.560;8.708;2022-07-06T14:47:49;26.10;52.60
28552;DHT22;15752;49.560;8.708;2022-07-06T14:50:18;26.00;52.90
28552;DHT22;15752;49.560;8.708;2022-07-06T14:52:48;26.00;53.00
28552;DHT22;15752;49.560;8.708;2022-07-06T14:55:17;25.90;52.80
28552;DHT22;15752;49.560;8.708;2022-07-06T14:57:47;25.90;52.90
28552;DHT22;15752;49.560;8.708;2022-07-06T15:00:16;25.90;52.70
28552;DHT22;15752;49.560;8.708;2022-07-06T15:02:45;25.80;53.10
28552;DHT22;15752;49.560;8.708;2022-07-06T15:05:14;25.80;53.00
28552;DHT22;15752;49.560;8.708;2022-07-06T15:07:43;25.70;52.80
28552;DHT22;15752;49.560;8.708;2022-07-06T15:10:22;25.70;52.70
28552;DHT22;15752;49.560;8.708;2022-07-06T15:12:51;25.60;52.40
28552;DHT22;15752;49.560;8.708;2022-07-06T15:15:20;25.60;53.00
28552;DHT22;15752;49.560;8.708;2022-07-06T15:18:08;25.50;52.90
28552;DHT22;15752;49.560;8.708;2022-07-06T15:20:37;25.40;52.70
28552;DHT22;15752;49.560;8.708;2022-07-06T15:23:06;25.40;52.50
28552;DHT22;15752;49.560;8.708;2022-07-06T15:25:37;25.40;53.00
28552;DHT22;15752;49.560;8.708;2022-07-06T15:28:06;25.30;52.30
28552;DHT22;15752;49.560;8.708;2022-07-06T15:30:34;25.30;52.40
28552;DHT22;15752;49.560;8.708;2022-07-06T15:33:03;25.30;52.10
28552;DHT22;15752;49.560;8.708;2022-07-06T15:35:33;25.20;52.40
28552;DHT22;15752;49.560;8.708;2022-07-06T15:38:02;25.20;52.80
28552;DHT22;15752;49.560;8.708;2022-07-06T15:40:31;25.10;52.20
28552;DHT22;15752;49.560;8.708;2022-07-06T15:43:07;25.10;52.70
28552;DHT22;15752;49.560;8.708;2022-07-06T15:45:36;25.00;52.10
28552;DHT22;15752;49.560;8.708;2022-07-06T15:48:06;25.00;52.50
28552;DHT22;15752;49.560;8.708;2022-07-06T15:50:35;25.00;52.90
28552;DHT22;15752;49.560;8.708;2022-07-06T15:53:04;24.90;53.10
28552;DHT22;15752;49.560;8.708;2022-07-06T15:55:33;25.00;53.00